Time;durP1;ratioP1;P1;durP2;ratioP2;P2;SDS_P1;SDS_P2;PMS_P1;PMS_P2;Temp;Humidity;BMP_temperature;BMP_pressure;BME280_temperature;BME280_humidity;BME280_pressure;Samples;Min_cycle;Max_cycle;Signal;HPM_P1;HPM_P2
2021/08/25 00:01:19;;;;;;;11.35;9.35;;;11.80;99.90;;;;;;5062626;28;20033;-77
2021/08/25 00:03:45;;;;;;;11.48;9.07;;;11.80;99.90;;;;;;5053925;28;20049;-78
2021/08/25 00:06:11;;;;;;;10.57;8.30;;;11.80;99.90;;;;;;5065422;28;20032;-77
2021/08/25 00:08:37;;;;;;;10.90;8.93;;;11.80;99.90;;;;;;5059925;28;20029;-77
2021/08/25 00:11:04;;;;;;;13.13;9.60;;;11.80;99.90;;;;;;5061583;28;20382;-78
2021/08/25 00:13:30;;;;;;;10.60;9.32;;;11.80;99.90;;;;;;5054267;28;20143;-77
2021/08/25 00:15:56;;;;;;;15.82;10.13;;;11.80;99.90;;;;;;5069672;28;20063;-77
2021/08/25 00:18:24;;;;;;;12.90;8.93;;;11.80;99.90;;;;;;5054023;28;20056;-77
2021/08/25 00:20:51;;;;;;;11.18;8.10;;;11.80;99.90;;;;;;5061874;28;20036;-78
2021/08/25 00:23:17;;;;;;;10.30;8.30;;;11.70;99.90;;;;;;5060939;28;20467;-78
2021/08/25 00:25:44;;;;;;;14.32;8.98;;;11.70;99.90;;;;;;5053183;28;20032;-77
2021/08/25 00:28:11;;;;;;;10.95;9.25;;;11.60;99.90;;;;;;5068463;28;20041;-78
2021/08/25 00:30:37;;;;;;;11.73;9.10;;;11.60;99.90;;;;;;5054166;28;20033;-78
2021/08/25 00:33:03;;;;;;;14.65;10.15;;;11.50;99.90;;;;;;5054095;28;20032;-77
2021/08/25 00:35:29;;;;;;;14.85;10.10;;;11.50;99.90;;;;;;5053615;28;20049;-77
2021/08/25 00:37:55;;;;;;;14.32;10.77;;;11.50;99.90;;;;;;5065103;28;20055;-77
2021/08/25 00:40:22;;;;;;;11.80;10.18;;;11.60;99.90;;;;;;5073095;28;20386;-77
2021/08/25 00:42:48;;;;;;;10.85;9.68;;;11.50;99.90;;;;;;5056003;28;20461;-77
2021/08/25 00:45:14;;;;;;;14.32;9.70;;;11.40;99.90;;;;;;5056135;28;20040;-78
2021/08/25 00:47:41;;;;;;;13.63;9.95;;;11.40;99.90;;;;;;5073808;28;20036;-77
2021/08/25 00:50:09;;;;;;;13.20;9.85;;;11.40;99.90;;;;;;5055813;28;20041;-78
2021/08/25 00:52:38;;;;;;;12.98;10.95;;;11.40;99.90;;;;;;5059544;28;20037;-77
2021/08/25 00:55:05;;;;;;;16.63;10.80;;;11.50;99.90;;;;;;5077077;28;20044;-77
2021/08/25 00:57:36;;;;;;;12.77;10.93;;;11.50;99.90;;;;;;5070436;28;20040;-77
2021/08/25 01:00:14;;;;;;;11.90;10.50;;;11.60;99.90;;;;;;5055730;28;20482;-77
2021/08/25 01:03:13;;;;;;;13.88;11.73;;;11.60;99.90;;;;;;5053486;28;20036;-78
2021/08/25 01:05:42;;;;;;;11.80;9.85;;;11.60;99.90;;;;;;5059917;28;20040;-77
2021/08/25 01:08:11;;;;;;;16.50;11.88;;;11.70;99.90;;;;;;5053627;28;20044;-78
2021/08/25 01:10:38;;;;;;;12.88;10.07;;;11.70;99.90;;;;;;5053694;28;20036;-77
2021/08/25 01:13:07;;;;;;;13.35;10.10;;;11.70;99.90;;;;;;5053220;28;20025;-78
2021/08/25 01:15:39;;;;;;;11.30;9.57;;;11.70;99.90;;;;;;5053469;28;20466;-76
2021/08/25 01:18:10;;;;;;;14.52;10.55;;;11.60;99.90;;;;;;5058252;28;20029;-77
2021/08/25 01:20:38;;;;;;;13.45;10.90;;;11.60;99.90;;;;;;5075893;28;20037;-77
2021/08/25 01:23:04;;;;;;;12.65;10.10;;;11.60;99.90;;;;;;5064754;28;20044;-78
2021/08/25 01:25:32;;;;;;;15.43;11.23;;;11.50;99.90;;;;;;5066265;28;20033;-76
2021/08/25 01:28:03;;;;;;;15.13;10.77;;;11.60;99.90;;;;;;5040821;28;20494;-77
2021/08/25 01:30:33;;;;;;;10.27;9.18;;;11.50;99.90;;;;;;5068583;28;20040;-77
2021/08/25 01:33:00;;;;;;;14.10;10.07;;;11.40;99.90;;;;;;5065517;28;20044;-78
2021/08/25 01:35:37;;;;;;;13.82;9.88;;;11.30;99.90;;;;;;5052773;28;20294;-77
2021/08/25 01:38:04;;;;;;;13.45;10.43;;;11.30;99.90;;;;;;5054039;28;20039;-78
2021/08/25 01:40:33;;;;;;;18.02;11.05;;;11.30;99.90;;;;;;5067946;28;20450;-77
2021/08/25 01:43:00;;;;;;;12.40;11.05;;;11.20;99.90;;;;;;5055922;28;20052;-77
2021/08/25 01:45:26;;;;;;;13.75;10.85;;;11.30;99.90;;;;;;5055877;28;20036;-78
2021/08/25 01:47:52;;;;;;;13.52;11.77;;;11.30;99.90;;;;;;5069048;28;20052;-77
2021/08/25 01:50:20;;;;;;;16.20;11.75;;;11.30;99.90;;;;;;5055930;28;20359;-77
2021/08/25 01:52:46;;;;;;;13.88;11.30;;;11.20;99.90;;;;;;5055650;28;20374;-77
2021/08/25 01:55:12;;;;;;;12.80;10.88;;;11.20;99.90;;;;;;5055773;28;20040;-77
2021/08/25 01:57:40;;;;;;;14.63;11.32;;;11.20;99.90;;;;;;5055330;28;20033;-77
2021/08/25 02:00:06;;;;;;;13.82;11.48;;;11.10;99.90;;;;;;5055438;28;20423;-77
2021/08/25 02:02:32;;;;;;;15.68;11.45;;;11.10;99.90;;;;;;5055468;28;20391;-77
2021/08/25 02:04:59;;;;;;;14.23;11.23;;;11.10;99.90;;;;;;5055209;28;20033;-77
2021/08/25 02:07:25;;;;;;;15.43;10.90;;;11.00;99.90;;;;;;5055438;28;20033;-77
2021/08/25 02:09:51;;;;;;;14.43;11.38;;;10.90;99.90;;;;;;5060881;28;20039;-78
2021/08/25 02:12:17;;;;;;;14.43;11.32;;;10.90;99.90;;;;;;5067906;28;20029;-77
2021/08/25 02:14:43;;;;;;;13.43;10.50;;;11.00;99.90;;;;;;5054602;28;20029;-77
2021/08/25 02:17:10;;;;;;;13.93;11.18;;;10.90;99.90;;;;;;5062866;28;20025;-77
2021/08/25 02:19:36;;;;;;;16.98;11.65;;;10.90;99.90;;;;;;5058997;28;20049;-77
2021/08/25 02:22:04;;;;;;;14.93;11.80;;;10.80;99.90;;;;;;5055245;28;20028;-77
2021/08/25 02:24:30;;;;;;;13.93;11.77;;;10.70;99.90;;;;;;5055088;28;20458;-77
2021/08/25 02:26:56;;;;;;;15.75;12.40;;;10.70;99.90;;;;;;5054636;28;20044;-77
2021/08/25 02:29:22;;;;;;;16.52;13.40;;;10.80;99.90;;;;;;5068971;28;20045;-78
2021/08/25 02:31:49;;;;;;;17.75;13.25;;;10.80;99.90;;;;;;5054294;28;20040;-78
2021/08/25 02:34:15;;;;;;;18.88;13.55;;;10.80;99.90;;;;;;5054717;28;20386;-78
2021/08/25 02:36:41;;;;;;;17.98;12.95;;;11.00;99.90;;;;;;5067122;28;20475;-78
2021/08/25 02:39:07;;;;;;;17.00;12.80;;;11.00;99.90;;;;;;5059884;28;20041;-78
2021/08/25 02:41:34;;;;;;;15.90;12.98;;;11.00;99.90;;;;;;5068512;28;20060;-76
2021/08/25 02:44:00;;;;;;;15.70;12.63;;;11.00;99.90;;;;;;5065217;28;20039;-76
2021/08/25 02:46:26;;;;;;;16.15;13.27;;;11.00;99.90;;;;;;5063527;28;20032;-76
2021/08/25 02:48:52;;;;;;;14.80;12.52;;;11.00;99.90;;;;;;5053908;28;20478;-76
2021/08/25 02:51:18;;;;;;;16.77;13.73;;;11.00;99.90;;;;;;5054522;28;20037;-77
2021/08/25 02:53:44;;;;;;;15.80;12.85;;;11.00;99.90;;;;;;5054137;28;20056;-78
2021/08/25 02:56:11;;;;;;;17.85;14.15;;;11.00;99.90;;;;;;5054450;28;20029;-77
2021/08/25 02:58:38;;;;;;;15.75;13.05;;;11.00;99.90;;;;;;5059191;28;20067;-77
2021/08/25 03:01:04;;;;;;;14.60;11.93;;;11.00;99.90;;;;;;5060963;28;20047;-77
2021/08/25 03:03:31;;;;;;;17.48;13.48;;;11.00;99.90;;;;;;5053917;28;20467;-77
2021/08/25 03:05:57;;;;;;;15.48;12.75;;;10.90;99.90;;;;;;5054208;28;20032;-77
2021/08/25 03:08:23;;;;;;;16.95;13.23;;;10.90;99.90;;;;;;5055505;28;20044;-77
2021/08/25 03:10:50;;;;;;;18.95;13.52;;;10.90;99.90;;;;;;5067608;28;20037;-76
2021/08/25 03:13:16;;;;;;;15.20;11.95;;;10.80;99.90;;;;;;5057592;28;20043;-77
2021/08/25 03:15:42;;;;;;;18.95;13.55;;;10.80;99.90;;;;;;5053945;28;20044;-77
2021/08/25 03:18:08;;;;;;;14.25;12.73;;;10.80;99.90;;;;;;5054149;28;20470;-77
2021/08/25 03:20:34;;;;;;;16.58;13.73;;;10.80;99.90;;;;;;5053681;28;20489;-76
2021/08/25 03:23:01;;;;;;;18.42;14.60;;;10.80;99.90;;;;;;5070357;28;20058;-77
2021/08/25 03:25:27;;;;;;;16.67;14.07;;;10.80;99.90;;;;;;5058377;28;20040;-76
2021/08/25 03:27:53;;;;;;;18.92;14.68;;;10.80;99.90;;;;;;5053247;28;20209;-76
2021/08/25 03:30:20;;;;;;;18.63;14.57;;;10.80;99.90;;;;;;5053792;28;20041;-76
2021/08/25 03:32:46;;;;;;;18.42;13.80;;;10.80;99.90;;;;;;5052959;28;20041;-76
2021/08/25 03:35:12;;;;;;;20.23;14.23;;;10.90;99.90;;;;;;5056301;28;20053;-76
2021/08/25 03:37:38;;;;;;;16.15;12.57;;;10.90;99.90;;;;;;5059852;28;20048;-77
2021/08/25 03:40:08;;;;;;;15.55;13.57;;;10.80;99.90;;;;;;5053606;28;20029;-77
2021/08/25 03:42:35;;;;;;;19.55;13.75;;;10.80;99.90;;;;;;5052790;28;20485;-76
2021/08/25 03:45:02;;;;;;;19.52;13.55;;;10.70;99.90;;;;;;5060843;28;20029;-78
2021/08/25 03:47:29;;;;;;;19.30;14.57;;;10.70;99.90;;;;;;5054455;28;20040;-77
2021/08/25 03:49:55;;;;;;;18.77;14.13;;;10.70;99.90;;;;;;5053055;28;20053;-77
2021/08/25 03:52:22;;;;;;;16.20;14.00;;;10.80;99.90;;;;;;5052942;28;20040;-76
2021/08/25 03:54:48;;;;;;;19.17;14.45;;;10.80;99.90;;;;;;5053099;28;20033;-77
2021/08/25 03:57:14;;;;;;;18.25;14.57;;;10.80;99.90;;;;;;5053247;28;20506;-77
2021/08/25 03:59:40;;;;;;;21.08;14.82;;;10.80;99.90;;;;;;5057281;28;20036;-78
2021/08/25 04:02:06;;;;;;;18.65;16.02;;;10.70;99.90;;;;;;5063970;28;20029;-77
2021/08/25 04:04:32;;;;;;;19.27;14.50;;;10.70;99.90;;;;;;5052975;28;20466;-77
2021/08/25 04:06:59;;;;;;;20.13;15.10;;;10.70;99.90;;;;;;5060125;28;20044;-77
2021/08/25 04:09:25;;;;;;;16.73;13.68;;;10.80;99.90;;;;;;5060468;28;20040;-77
2021/08/25 04:11:51;;;;;;;17.65;14.55;;;10.70;99.90;;;;;;5054030;28;20037;-78
2021/08/25 04:14:17;;;;;;;18.88;14.98;;;10.70;99.90;;;;;;5053488;28;20037;-78
2021/08/25 04:16:43;;;;;;;16.70;14.25;;;10.70;99.90;;;;;;5052665;28;20497;-78
2021/08/25 04:19:09;;;;;;;18.45;13.73;;;10.60;99.90;;;;;;5053194;28;20040;-79
2021/08/25 04:21:36;;;;;;;18.98;14.95;;;10.60;99.90;;;;;;5063316;28;20024;-75
2021/08/25 04:24:02;;;;;;;18.13;13.57;;;10.60;99.90;;;;;;5068989;28;20029;-76
2021/08/25 04:26:28;;;;;;;19.80;14.63;;;10.50;99.90;;;;;;5061816;28;20044;-76
2021/08/25 04:28:54;;;;;;;19.05;14.30;;;10.50;99.90;;;;;;5053199;28;20036;-77
2021/08/25 04:31:21;;;;;;;18.88;14.50;;;10.50;99.90;;;;;;5063069;28;20669;-78
2021/08/25 04:33:47;;;;;;;20.48;13.88;;;10.60;99.90;;;;;;5061496;28;20025;-75
2021/08/25 04:36:13;;;;;;;19.20;15.15;;;10.50;99.90;;;;;;5053733;28;20040;-76
2021/08/25 04:38:39;;;;;;;18.88;14.35;;;10.50;99.90;;;;;;5066613;28;20036;-76
2021/08/25 04:41:06;;;;;;;20.95;15.70;;;10.50;99.90;;;;;;5052008;28;20048;-76
2021/08/25 04:43:32;;;;;;;21.08;15.85;;;10.50;99.90;;;;;;5058447;28;20033;-77
2021/08/25 04:45:58;;;;;;;18.45;15.80;;;10.50;99.90;;;;;;5063116;28;20044;-77
2021/08/25 04:48:24;;;;;;;22.00;14.80;;;10.50;99.90;;;;;;5060073;28;20032;-77
2021/08/25 04:50:51;;;;;;;18.45;16.10;;;10.60;99.90;;;;;;5066182;28;20041;-77
2021/08/25 04:53:17;;;;;;;20.20;16.20;;;10.70;99.90;;;;;;5052580;28;20028;-78
2021/08/25 04:55:44;;;;;;;21.75;14.80;;;10.70;99.90;;;;;;5050407;28;20041;-77
2021/08/25 04:58:10;;;;;;;15.73;13.38;;;10.70;99.90;;;;;;5064529;28;20041;-77
2021/08/25 05:00:36;;;;;;;21.10;14.00;;;10.70;99.90;;;;;;5068100;28;20036;-77
2021/08/25 05:03:02;;;;;;;21.33;14.10;;;10.80;99.90;;;;;;5066678;28;20454;-76
2021/08/25 05:05:29;;;;;;;17.00;13.50;;;10.70;99.90;;;;;;5050938;28;20033;-77
2021/08/25 05:07:55;;;;;;;17.38;13.77;;;10.70;99.90;;;;;;5051593;28;20033;-77
2021/08/25 05:10:21;;;;;;;18.40;13.32;;;10.70;99.90;;;;;;5052004;28;20041;-77
2021/08/25 05:12:47;;;;;;;16.88;12.63;;;10.80;99.90;;;;;;5050771;28;20036;-77
2021/08/25 05:15:13;;;;;;;14.32;10.48;;;11.10;99.90;;;;;;5056535;28;20024;-77
2021/08/25 05:17:40;;;;;;;11.15;9.20;;;11.70;99.90;;;;;;5064482;28;20021;-77
2021/08/25 05:20:07;;;;;;;9.35;7.72;;;12.10;99.90;;;;;;5054665;28;20029;-78
2021/08/25 05:22:36;;;;;;;9.90;7.43;;;12.60;99.90;;;;;;5057917;28;20373;-79
2021/08/25 05:25:03;;;;;;;8.00;5.97;;;13.00;99.90;;;;;;5048887;28;20048;-77
2021/08/25 05:27:30;;;;;;;8.55;6.22;;;13.20;99.90;;;;;;5053918;28;20025;-79
2021/08/25 05:29:56;;;;;;;9.50;5.60;;;13.30;99.90;;;;;;5064829;28;20040;-78
2021/08/25 05:32:22;;;;;;;6.70;5.10;;;13.70;99.90;;;;;;5052472;28;20056;-80
2021/08/25 05:34:48;;;;;;;6.43;5.28;;;14.20;99.90;;;;;;5054616;28;20386;-82
2021/08/25 05:37:14;;;;;;;6.97;4.93;;;14.00;99.90;;;;;;5052271;28;20414;-79
2021/08/25 05:39:40;;;;;;;8.52;4.88;;;13.70;99.90;;;;;;5056365;28;20028;-81
2021/08/25 05:42:07;;;;;;;7.68;4.95;;;13.90;99.90;;;;;;5052378;28;20355;-80
2021/08/25 05:44:33;;;;;;;6.07;4.70;;;14.50;99.90;;;;;;5052140;28;20028;-80
2021/08/25 05:46:59;;;;;;;7.60;4.40;;;14.80;99.90;;;;;;5054613;28;20025;-80
2021/08/25 05:49:25;;;;;;;6.40;4.43;;;14.90;99.90;;;;;;5071178;28;20029;-80
2021/08/25 05:51:51;;;;;;;5.85;4.18;;;15.30;99.90;;;;;;5062452;28;20346;-80
2021/08/25 05:54:18;;;;;;;5.95;4.40;;;15.40;99.90;;;;;;5064223;28;20033;-80
2021/08/25 05:56:44;;;;;;;7.00;4.32;;;15.70;99.90;;;;;;5063622;28;20029;-80
2021/08/25 05:59:10;;;;;;;6.10;4.20;;;15.70;99.90;;;;;;5065984;28;20037;-80
2021/08/25 06:01:36;;;;;;;8.27;4.93;;;15.80;99.90;;;;;;5066160;28;20027;-79
2021/08/25 06:04:03;;;;;;;6.05;4.22;;;15.80;99.90;;;;;;5055635;28;20029;-80
2021/08/25 06:06:34;;;;;;;6.72;4.55;;;15.70;99.90;;;;;;5053857;28;20040;-80
2021/08/25 06:09:03;;;;;;;5.70;4.55;;;15.80;99.90;;;;;;5061421;28;20040;-80
2021/08/25 06:11:29;;;;;;;7.18;4.88;;;16.00;99.40;;;;;;5063143;28;20473;-79
2021/08/25 06:13:55;;;;;;;6.90;4.32;;;16.00;99.10;;;;;;5056412;28;20029;-81
2021/08/25 06:16:22;;;;;;;4.88;4.13;;;15.90;99.50;;;;;;5055710;28;20041;-81
2021/08/25 06:18:48;;;;;;;6.35;4.55;;;15.90;99.30;;;;;;5067685;28;20021;-81
2021/08/25 06:21:16;;;;;;;7.00;4.32;;;16.00;99.00;;;;;;5068999;28;20032;-81
2021/08/25 06:23:45;;;;;;;6.13;3.85;;;16.00;99.60;;;;;;5058663;28;20017;-79
2021/08/25 06:26:12;;;;;;;7.18;4.40;;;16.70;98.70;;;;;;5056457;28;20029;-81
2021/08/25 06:28:38;;;;;;;4.93;4.25;;;16.90;97.50;;;;;;5056843;28;20049;-83
2021/08/25 06:31:05;;;;;;;5.82;4.53;;;17.40;96.40;;;;;;5056090;28;20040;-80
2021/08/25 06:33:32;;;;;;;6.93;3.97;;;17.70;95.70;;;;;;5056697;28;20021;-79
2021/08/25 06:35:58;;;;;;;8.38;4.53;;;17.60;95.50;;;;;;5055940;28;20037;-80
2021/08/25 06:38:25;;;;;;;5.47;4.13;;;18.20;93.20;;;;;;5067492;28;20033;-80
2021/08/25 06:40:51;;;;;;;5.70;3.90;;;17.70;94.30;;;;;;5062320;28;20020;-80
2021/08/25 06:43:17;;;;;;;6.18;4.88;;;18.10;94.10;;;;;;5059273;28;20021;-79
2021/08/25 06:45:43;;;;;;;8.43;5.32;;;19.20;92.10;;;;;;5058146;28;20021;-80
2021/08/25 06:48:09;;;;;;;5.50;4.72;;;19.00;91.60;;;;;;5069075;28;20029;-79
2021/08/25 06:50:36;;;;;;;5.68;3.90;;;18.90;91.30;;;;;;5066565;28;20405;-82
2021/08/25 06:53:02;;;;;;;7.22;4.57;;;18.90;90.60;;;;;;5059851;28;20036;-80
2021/08/25 06:55:28;;;;;;;5.97;4.30;;;18.50;91.00;;;;;;5056428;28;20037;-79
2021/08/25 06:57:54;;;;;;;7.40;4.03;;;18.20;91.70;;;;;;5054924;28;20029;-78
2021/08/25 07:00:21;;;;;;;8.40;4.20;;;17.90;92.70;;;;;;5061112;28;20466;-81
2021/08/25 07:02:48;;;;;;;5.47;3.78;;;18.40;92.10;;;;;;5065264;28;20025;-80
2021/08/25 07:05:14;;;;;;;7.18;4.18;;;18.10;92.30;;;;;;5059333;28;20024;-80
2021/08/25 07:07:40;;;;;;;6.05;4.53;;;18.40;91.90;;;;;;5068112;28;20036;-80
2021/08/25 07:10:07;;;;;;;6.13;4.03;;;17.80;91.60;;;;;;5088910;28;20041;-80
2021/08/25 07:12:33;;;;;;;5.45;3.92;;;17.80;91.90;;;;;;5064697;28;20398;-78
2021/08/25 07:15:00;;;;;;;5.85;4.03;;;18.30;91.10;;;;;;5064204;28;20035;-79
2021/08/25 07:17:27;;;;;;;6.88;4.32;;;18.90;90.60;;;;;;5055634;28;20033;-79
2021/08/25 07:19:53;;;;;;;5.63;4.00;;;18.80;90.10;;;;;;5054909;28;20029;-80
2021/08/25 07:22:19;;;;;;;7.03;4.15;;;18.30;90.60;;;;;;5060241;28;20041;-79
2021/08/25 07:24:45;;;;;;;5.18;4.40;;;18.40;90.70;;;;;;5055606;28;20033;-78
2021/08/25 07:27:12;;;;;;;5.45;3.95;;;18.60;90.10;;;;;;5056593;28;20033;-79
2021/08/25 07:29:38;;;;;;;7.10;3.85;;;18.80;88.00;;;;;;5062772;28;20454;-81
2021/08/25 07:32:05;;;;;;;5.00;3.97;;;18.50;88.20;;;;;;5062304;28;20036;-78
2021/08/25 07:34:31;;;;;;;5.05;4.15;;;18.40;89.30;;;;;;5058209;28;20044;-80
2021/08/25 07:36:57;;;;;;;4.70;4.05;;;18.50;87.30;;;;;;5058053;28;20039;-78
2021/08/25 07:39:23;;;;;;;6.45;4.13;;;18.70;86.30;;;;;;5067375;28;20033;-78
2021/08/25 07:41:50;;;;;;;7.35;3.85;;;18.80;86.00;;;;;;5054930;28;20021;-78
2021/08/25 07:44:16;;;;;;;6.88;4.28;;;19.60;86.00;;;;;;5063765;28;20462;-78
2021/08/25 07:46:43;;;;;;;6.15;4.57;;;19.40;85.00;;;;;;5068630;28;20492;-79
2021/08/25 07:49:09;;;;;;;6.03;3.53;;;19.50;86.10;;;;;;5065236;28;20037;-79
2021/08/25 07:51:35;;;;;;;5.25;3.55;;;20.10;83.10;;;;;;5058739;28;20044;-80
2021/08/25 07:54:03;;;;;;;4.88;3.85;;;20.10;80.60;;;;;;5056419;28;20040;-79
2021/08/25 07:56:30;;;;;;;7.07;3.95;;;20.10;79.60;;;;;;5069817;28;20039;-82
2021/08/25 07:58:56;;;;;;;5.53;3.75;;;19.70;81.00;;;;;;5068274;28;20029;-79
2021/08/25 08:01:23;;;;;;;5.15;3.90;;;19.60;80.30;;;;;;5053684;28;20374;-81
2021/08/25 08:03:49;;;;;;;5.10;3.70;;;20.30;79.20;;;;;;5053437;28;20040;-80
2021/08/25 08:06:20;;;;;;;9.38;3.58;;;19.70;80.60;;;;;;5057432;28;20029;-81
2021/08/25 08:08:46;;;;;;;5.80;3.65;;;19.30;81.80;;;;;;5055285;28;20028;-80
2021/08/25 08:11:13;;;;;;;4.30;3.35;;;19.00;84.10;;;;;;5054890;28;20480;-80
2021/08/25 08:13:39;;;;;;;8.25;4.10;;;19.20;83.70;;;;;;5055462;28;20036;-81
2021/08/25 08:16:06;;;;;;;7.38;4.00;;;19.00;84.20;;;;;;5056915;28;20025;-81
2021/08/25 08:18:41;;;;;;;4.60;3.75;;;19.10;84.20;;;;;;5056592;28;20032;-81
2021/08/25 08:21:08;;;;;;;5.65;3.53;;;19.10;83.50;;;;;;5055424;28;20398;-78
2021/08/25 08:23:34;;;;;;;6.82;3.97;;;19.60;85.50;;;;;;5057162;28;20618;-79
2021/08/25 08:26:00;;;;;;;8.70;3.67;;;20.70;76.20;;;;;;5067174;28;20462;-78
2021/08/25 08:28:27;;;;;;;5.38;3.42;;;20.60;76.30;;;;;;5054532;28;20025;-81
2021/08/25 08:30:53;;;;;;;6.95;3.67;;;20.00;79.50;;;;;;5053065;28;20455;-83
2021/08/25 08:33:19;;;;;;;6.45;3.40;;;20.30;78.70;;;;;;5053759;28;20059;-82
2021/08/25 08:35:46;;;;;;;5.85;4.35;;;20.10;79.90;;;;;;5069545;28;20041;-81
2021/08/25 08:38:12;;;;;;;8.35;3.90;;;20.20;79.50;;;;;;5059828;28;20033;-84
2021/08/25 08:40:38;;;;;;;5.20;3.90;;;19.70;80.40;;;;;;5070127;28;20036;-83
2021/08/25 08:43:10;;;;;;;5.05;3.83;;;19.70;81.30;;;;;;5053574;28;20029;-80
2021/08/25 08:45:41;;;;;;;4.43;3.72;;;19.70;80.50;;;;;;5070257;28;20024;-83
2021/08/25 08:48:09;;;;;;;7.13;3.75;;;19.80;80.70;;;;;;5059027;28;20466;-81
2021/08/25 08:50:36;;;;;;;3.80;2.80;;;20.10;78.90;;;;;;5063512;28;20053;-81
2021/08/25 08:53:05;;;;;;;5.07;3.35;;;21.20;74.30;;;;;;5060761;28;20434;-82
2021/08/25 08:55:31;;;;;;;7.78;4.18;;;21.40;73.10;;;;;;5064116;28;20024;-81
2021/08/25 08:57:58;;;;;;;5.18;3.08;;;20.80;73.80;;;;;;5053185;28;20041;-82
2021/08/25 09:00:24;;;;;;;5.10;4.10;;;21.00;72.70;;;;;;5063738;28;20033;-80
2021/08/25 09:02:51;;;;;;;4.75;3.20;;;20.70;73.60;;;;;;5054237;28;20037;-82
2021/08/25 09:05:28;;;;;;;5.53;3.70;;;20.50;74.80;;;;;;5056861;28;20032;-83
2021/08/25 09:08:03;;;;;;;5.00;3.50;;;20.40;74.50;;;;;;5051953;28;20024;-82
2021/08/25 09:10:33;;;;;;;6.40;3.70;;;20.10;75.30;;;;;;5052710;28;20043;-81
2021/08/25 09:13:01;;;;;;;4.90;3.17;;;20.50;73.90;;;;;;5053442;28;20037;-81
2021/08/25 09:15:39;;;;;;;6.95;3.40;;;21.00;71.30;;;;;;5056632;28;20024;-83
2021/08/25 09:18:08;;;;;;;8.55;4.10;;;21.00;73.50;;;;;;5051726;28;20378;-83
2021/08/25 09:20:46;;;;;;;4.80;3.42;;;21.20;73.10;;;;;;5060616;28;20036;-82
2021/08/25 09:23:13;;;;;;;5.15;2.95;;;21.10;70.80;;;;;;5064515;28;20047;-78
2021/08/25 09:25:41;;;;;;;4.63;3.22;;;21.40;70.50;;;;;;5057625;28;20044;-77
2021/08/25 09:28:08;;;;;;;4.25;3.15;;;21.90;67.00;;;;;;5070130;28;20044;-79
2021/08/25 09:30:50;;;;;;;3.72;2.85;;;22.50;69.00;;;;;;5059628;28;20055;-80
2021/08/25 09:33:21;;;;;;;6.20;3.05;;;23.40;66.20;;;;;;5052312;28;20040;-81
2021/08/25 09:35:48;;;;;;;4.53;3.10;;;22.20;68.20;;;;;;5054461;28;20467;-81
2021/08/25 09:38:18;;;;;;;4.70;3.03;;;21.60;69.70;;;;;;5066303;28;20454;-82
2021/08/25 09:41:12;;;;;;;5.10;3.70;;;21.20;70.30;;;;;;5053849;28;20029;-77
2021/08/25 09:43:44;;;;;;;4.82;4.15;;;21.70;67.90;;;;;;5052166;28;20037;-81
2021/08/25 09:46:22;;;;;;;5.53;3.72;;;21.60;68.50;;;;;;5055837;28;20036;-81
2021/08/25 09:48:51;;;;;;;7.68;3.55;;;21.50;69.30;;;;;;5055738;28;20032;-79
2021/08/25 09:51:21;;;;;;;8.05;3.40;;;21.30;69.20;;;;;;5055225;28;20037;-81
2021/08/25 09:53:50;;;;;;;5.72;3.78;;;21.30;69.30;;;;;;5055187;28;20025;-81
2021/08/25 09:56:25;;;;;;;5.10;3.65;;;21.10;69.80;;;;;;5052634;28;20033;-80
2021/08/25 09:58:52;;;;;;;5.75;3.75;;;21.60;67.80;;;;;;5056380;28;20037;-81
2021/08/25 10:01:19;;;;;;;5.70;3.80;;;21.50;64.90;;;;;;5060526;28;20040;-81
2021/08/25 10:03:46;;;;;;;6.10;3.35;;;21.20;64.20;;;;;;5055306;28;20029;-80
2021/08/25 10:06:16;;;;;;;4.65;3.40;;;21.40;65.80;;;;;;5058057;28;20024;-81
2021/08/25 10:08:44;;;;;;;7.15;3.42;;;21.30;67.30;;;;;;5057673;28;20354;-77
2021/08/25 10:11:11;;;;;;;6.20;3.75;;;21.20;68.40;;;;;;5069517;28;20041;-81
2021/08/25 10:13:38;;;;;;;7.00;3.80;;;21.10;66.60;;;;;;5057132;28;20029;-81
2021/08/25 10:16:09;;;;;;;5.10;3.38;;;21.30;68.60;;;;;;5057004;28;20017;-79
2021/08/25 10:18:40;;;;;;;5.45;3.92;;;21.50;59.30;;;;;;5057016;28;20370;-79
2021/08/25 10:21:41;;;;;;;5.72;3.20;;;21.40;61.50;;;;;;5065686;28;20040;-76
2021/08/25 10:24:08;;;;;;;7.20;3.42;;;21.50;61.60;;;;;;5056497;28;20025;-75
2021/08/25 10:26:57;;;;;;;7.90;3.55;;;21.60;60.80;;;;;;5057552;28;20025;-76
2021/08/25 10:29:23;;;;;;;5.40;3.58;;;21.60;59.50;;;;;;5055219;28;20037;-80
2021/08/25 10:31:50;;;;;;;5.18;3.15;;;21.40;59.70;;;;;;5068819;28;20037;-78
2021/08/25 10:34:20;;;;;;;8.15;3.38;;;21.60;58.80;;;;;;5055064;28;20041;-79
2021/08/25 10:36:47;;;;;;;4.85;3.03;;;21.60;56.80;;;;;;5056022;28;20033;-77
2021/08/25 10:39:29;;;;;;;6.88;3.35;;;22.10;57.60;;;;;;5056170;28;20450;-78
2021/08/25 10:41:56;;;;;;;5.03;3.72;;;22.10;57.50;;;;;;5058456;28;20036;-81
2021/08/25 10:44:38;;;;;;;5.35;3.08;;;22.40;58.40;;;;;;5061025;28;20051;-81
2021/08/25 10:47:05;;;;;;;7.85;3.88;;;21.80;57.60;;;;;;5070566;28;20029;-77
2021/08/25 10:49:33;;;;;;;5.55;3.78;;;21.50;60.70;;;;;;5066237;28;20036;-79
2021/08/25 10:52:14;;;;;;;7.45;3.63;;;21.70;60.50;;;;;;5072760;28;20055;-81
2021/08/25 10:54:42;;;;;;;6.80;4.07;;;21.80;58.90;;;;;;5069591;28;20489;-78
2021/08/25 10:57:18;;;;;;;6.55;3.88;;;21.70;55.80;;;;;;5055748;28;20032;-80
2021/08/25 10:59:46;;;;;;;7.75;3.83;;;21.80;58.20;;;;;;5067206;28;20032;-77
2021/08/25 11:02:12;;;;;;;5.30;3.60;;;22.00;58.00;;;;;;5061645;28;20025;-80
2021/08/25 11:04:39;;;;;;;5.22;3.38;;;21.90;58.50;;;;;;5079174;28;20031;-81
2021/08/25 11:07:10;;;;;;;5.22;3.33;;;22.00;58.00;;;;;;5068903;28;20036;-79
2021/08/25 11:09:40;;;;;;;7.07;3.60;;;21.80;58.80;;;;;;5069187;28;20040;-80
2021/08/25 11:12:15;;;;;;;4.28;3.35;;;21.90;58.00;;;;;;5078801;28;20048;-78
2021/08/25 11:14:49;;;;;;;5.68;2.83;;;22.10;57.60;;;;;;5069404;28;20032;-79
2021/08/25 11:17:21;;;;;;;5.63;3.65;;;22.40;55.30;;;;;;5069249;28;20463;-77
2021/08/25 11:19:54;;;;;;;3.92;2.90;;;22.30;55.70;;;;;;5067879;28;20047;-80
2021/08/25 11:22:35;;;;;;;5.85;3.60;;;22.30;55.30;;;;;;5055599;28;20035;-80
2021/08/25 11:25:08;;;;;;;5.25;3.10;;;22.00;55.30;;;;;;5056812;28;20029;-77
2021/08/25 11:27:44;;;;;;;5.95;3.50;;;21.60;56.90;;;;;;5054288;28;20481;-80
2021/08/25 11:30:14;;;;;;;5.10;3.17;;;21.70;56.70;;;;;;5054049;28;20039;-79
2021/08/25 11:32:49;;;;;;;;;;;21.80;55.60;;;;;;5054337;28;20028;-79
2021/08/25 11:35:26;;;;;;;9.65;3.47;;;21.90;56.00;;;;;;5058828;28;20249;-79
2021/08/25 11:37:55;;;;;;;7.22;3.92;;;22.20;55.90;;;;;;5071508;28;20033;-82
2021/08/25 11:40:23;;;;;;;6.20;3.45;;;22.40;56.50;;;;;;5069348;28;20052;-81
2021/08/25 11:42:50;;;;;;;7.43;3.83;;;22.30;55.80;;;;;;5066085;28;20017;-76
2021/08/25 11:45:28;;;;;;;5.30;3.35;;;22.00;56.40;;;;;;5057652;28;20021;-80
2021/08/25 11:47:56;;;;;;;7.88;4.00;;;22.00;56.20;;;;;;5063391;28;20029;-83
2021/08/25 11:50:25;;;;;;;9.25;4.20;;;22.20;55.10;;;;;;5056264;28;20487;-79
2021/08/25 11:52:51;;;;;;;5.07;3.40;;;21.90;55.20;;;;;;5065785;28;20029;-80
2021/08/25 11:55:18;;;;;;;6.32;3.47;;;22.00;56.20;;;;;;5054172;28;20040;-77
2021/08/25 11:57:53;;;;;;;7.18;4.05;;;22.10;55.00;;;;;;5061089;28;20035;-80
2021/08/25 12:00:40;;;;;;;6.07;3.03;;;22.30;54.50;;;;;;5059548;28;20037;-82
2021/08/25 12:03:08;;;;;;;8.98;4.00;;;22.10;56.20;;;;;;5053499;28;20052;-77
2021/08/25 12:05:40;;;;;;;6.18;3.67;;;22.20;56.20;;;;;;5053617;28;20470;-79
2021/08/25 12:08:10;;;;;;;5.57;3.80;;;21.90;55.00;;;;;;5054652;28;20316;-77
2021/08/25 12:10:40;;;;;;;5.40;3.85;;;21.80;55.30;;;;;;5056689;28;20032;-78
2021/08/25 12:13:07;;;;;;;6.22;3.78;;;21.80;56.40;;;;;;5053200;28;20277;-78
2021/08/25 12:15:50;;;;;;;6.43;3.92;;;21.90;56.80;;;;;;5058634;28;20029;-80
2021/08/25 12:18:19;;;;;;;5.55;3.65;;;22.30;56.90;;;;;;5054048;28;20036;-80
2021/08/25 12:20:47;;;;;;;4.78;3.58;;;22.40;56.50;;;;;;5063628;28;20025;-80
2021/08/25 12:23:16;;;;;;;5.95;3.78;;;22.60;55.60;;;;;;5052744;28;20044;-79
2021/08/25 12:25:48;;;;;;;4.85;3.53;;;22.20;56.60;;;;;;5056092;28;20031;-76
2021/08/25 12:28:42;;;;;;;5.50;3.53;;;22.10;57.40;;;;;;5064129;28;20489;-77
2021/08/25 12:31:16;;;;;;;5.72;3.88;;;22.20;55.90;;;;;;5053315;28;20040;-78
2021/08/25 12:33:47;;;;;;;5.43;3.58;;;22.10;55.90;;;;;;5053584;28;20382;-79
2021/08/25 12:36:28;;;;;;;7.90;3.58;;;21.90;56.10;;;;;;5054395;28;20028;-81
2021/08/25 12:39:10;;;;;;;4.93;2.80;;;22.20;56.80;;;;;;5064002;28;20031;-83
2021/08/25 12:41:39;;;;;;;8.35;4.28;;;22.30;56.20;;;;;;5071253;28;20032;-78
2021/08/25 12:44:07;;;;;;;6.55;3.80;;;22.20;54.90;;;;;;5057798;28;20024;-77